Time;durP1;ratioP1;P1;durP2;ratioP2;P2;SDS_P1;SDS_P2;PMS_P1;PMS_P2;Temp;Humidity;BMP_temperature;BMP_pressure;BME280_temperature;BME280_humidity;BME280_pressure;Samples;Min_cycle;Max_cycle;Signal;HPM_P1;HPM_P2
2021/12/24 00:01:12;;;;;;;;;;;;;;;1.87;59.28;99340.88;4427842;32;20009;-88
2021/12/24 00:03:37;;;;;;;;;;;;;;;1.96;59.28;99335.72;4427538;32;20689;-87
2021/12/24 00:06:05;;;;;;;;;;;;;;;1.99;59.29;99337.41;4427394;32;19993;-86
2021/12/24 00:08:31;;;;;;;;;;;;;;;2.06;59.29;99327.09;4427497;32;20339;-87
2021/12/24 00:11:01;;;;;;;;;;;;;;;2.09;59.29;99324.53;4427158;32;20001;-86
2021/12/24 00:13:26;;;;;;;;;;;;;;;2.03;59.29;99327.12;4427688;32;20384;-87
2021/12/24 00:16:04;;;;;;;;;;;;;;;2.15;59.30;99333.94;4427415;32;19996;-87
2021/12/24 00:37:24;;;;;;;;;;;;;;;1.96;59.28;99268.97;4428839;32;20008;-88
2021/12/24 00:40:25;;;;;;;;;;;;;;;1.95;59.28;99269.84;4426619;32;19981;-88
2021/12/24 00:42:46;;;;;;;;;;;;;;;1.94;59.28;99262.16;4428577;32;19978;-88
2021/12/24 00:45:12;;;;;;;;;;;;;;;1.72;59.27;99238.31;4426904;32;19969;-88
2021/12/24 00:47:37;;;;;;;;;;;;;;;1.99;59.29;99245.00;4426839;32;20030;-88
2021/12/24 00:50:07;;;;;;;;;;;;;;;1.97;59.28;99245.03;4426416;32;20049;-87
2021/12/24 00:55:17;;;;;;;;;;;;;;;2.05;59.29;99217.59;4429143;32;19968;-90
2021/12/24 00:57:43;;;;;;;;;;;;;;;2.17;59.30;99206.41;4426642;32;20338;-85
2021/12/24 01:00:09;;;;;;;;;;;;;;;2.18;59.30;99192.69;4426172;32;19973;-88
2021/12/24 01:02:34;;;;;;;;;;;;;;;1.80;59.28;99187.78;4439349;32;20275;-89
2021/12/24 01:04:59;;;;;;;;;;;;;;;1.99;59.29;99201.37;4425944;32;21363;-87
2021/12/24 01:07:25;;;;;;;;;;;;;;;1.91;59.27;99175.78;4427647;32;19978;-87
2021/12/24 01:09:53;;;;;;;;;;;;;;;1.94;59.29;99168.03;4428198;32;19994;-86
2021/12/24 01:12:18;;;;;;;;;;;;;;;1.88;59.28;99132.13;4428061;32;19994;-88
2021/12/24 01:14:47;;;;;;;;;;;;;;;2.03;59.29;99167.97;4428621;32;20041;-88
2021/12/24 01:17:26;;;;;;;;;;;;;;;1.90;59.28;99153.53;4428637;32;19982;-86
2021/12/24 01:19:57;;;;;;;;;;;;;;;1.84;59.28;99153.56;4429897;32;19992;-88
2021/12/24 01:25:28;;;;;;;;;;;;;;;1.80;59.28;99123.66;4423728;32;19989;-88
2021/12/24 01:28:12;;;;;;;;;;;;;;;1.79;59.28;99125.37;4430115;32;19984;-87
2021/12/24 01:39:01;;;;;;;;;;;;;;;1.90;59.28;99156.09;4430736;32;20045;-87
2021/12/24 01:44:11;;;;;;;;;;;;;;;1.94;59.29;99147.50;4430819;32;19993;-88
2021/12/24 01:46:36;;;;;;;;;;;;;;;1.85;59.28;99132.16;4428154;32;19997;-88
2021/12/24 01:49:01;;;;;;;;;;;;;;;1.73;59.27;99148.50;4428008;32;20012;-88
2021/12/24 01:51:28;;;;;;;;;;;;;;;1.83;59.27;99164.69;4427841;32;22832;-89
2021/12/24 01:53:53;;;;;;;;;;;;;;;1.78;59.27;99122.81;4428189;32;19985;-88
2021/12/24 01:56:18;;;;;;;;;;;;;;;1.83;59.27;99121.06;4427931;32;21347;-88
2021/12/24 01:58:43;;;;;;;;;;;;;;;1.90;59.28;99121.88;4427558;32;20067;-87
2021/12/24 02:01:09;;;;;;;;;;;;;;;1.65;59.27;99122.03;4428046;32;19995;-87
2021/12/24 02:03:34;;;;;;;;;;;;;;;1.72;59.27;99104.91;4427439;32;26396;-88
2021/12/24 02:05:59;;;;;;;;;;;;;;;1.91;59.27;99123.59;4428153;32;20471;-88
2021/12/24 02:08:24;;;;;;;;;;;;;;;1.84;59.28;99104.78;4427703;32;19977;-88
2021/12/24 02:10:50;;;;;;;;;;;;;;;1.85;59.28;99099.66;4428181;32;20019;-89
2021/12/24 02:13:15;;;;;;;;;;;;;;;1.83;59.27;99092.84;4428365;32;20278;-88
2021/12/24 02:28:46;;;;;;;;;;;;;;;1.99;59.29;99065.34;4429603;32;19970;-88
2021/12/24 02:31:13;;;;;;;;;;;;;;;2.11;59.29;99063.50;4428163;32;20019;-89
2021/12/24 02:33:38;;;;;;;;;;;;;;;2.18;59.30;99068.59;4428379;32;20342;-89
2021/12/24 02:36:03;;;;;;;;;;;;;;;2.08;59.29;99076.38;4427873;32;20032;-88
2021/12/24 02:38:29;;;;;;;;;;;;;;;2.25;59.30;99037.72;4428147;32;19974;-89
2021/12/24 02:40:54;;;;;;;;;;;;;;;2.18;59.30;99025.81;4428329;32;20013;-88
2021/12/24 02:43:22;;;;;;;;;;;;;;;2.30;59.31;99017.13;4427950;32;20027;-88
2021/12/24 02:45:49;;;;;;;;;;;;;;;2.35;59.30;99008.50;4428431;32;20012;-88
2021/12/24 02:53:59;;;;;;;;;;;;;;;2.27;59.29;98971.78;4429995;32;20028;-88
2021/12/24 02:56:30;;;;;;;;;;;;;;;2.19;59.30;98971.03;4429679;32;20038;-88
2021/12/24 02:58:55;;;;;;;;;;;;;;;2.33;59.30;98979.41;4428065;32;19992;-88
2021/12/24 03:01:25;;;;;;;;;;;;;;;2.21;59.29;98982.13;4427625;32;20001;-87
2021/12/24 03:03:51;;;;;;;;;;;;;;;2.41;59.31;98999.88;4427464;32;20675;-86
2021/12/24 03:06:16;;;;;;;;;;;;;;;2.46;59.31;98988.69;4427258;32;19961;-87
2021/12/24 03:08:41;;;;;;;;;;;;;;;2.41;59.30;99005.03;4426404;32;20030;-87
2021/12/24 03:11:07;;;;;;;;;;;;;;;2.31;59.31;99008.53;4426605;32;20000;-88
2021/12/24 03:13:32;;;;;;;;;;;;;;;2.30;59.31;99027.38;4426819;32;20009;-89
2021/12/24 03:15:58;;;;;;;;;;;;;;;1.98;59.29;99023.44;4426781;32;20600;-86
2021/12/24 03:18:27;;;;;;;;;;;;;;;2.06;59.29;99049.88;4426230;32;20285;-86
2021/12/24 03:21:00;;;;;;;;;;;;;;;2.22;59.30;99035.19;4426856;32;20053;-87
2021/12/24 03:23:43;;;;;;;;;;;;;;;2.26;59.30;99048.84;4428109;32;19997;-87
2021/12/24 03:26:10;;;;;;;;;;;;;;;2.26;59.30;99031.72;4429266;32;20056;-87
2021/12/24 03:28:35;;;;;;;;;;;;;;;2.24;59.30;99033.44;4426599;32;19978;-89
2021/12/24 03:31:00;;;;;;;;;;;;;;;2.17;59.30;99010.41;4427539;32;20000;-88
2021/12/24 03:33:26;;;;;;;;;;;;;;;2.23;59.30;99010.34;4427279;32;20009;-88
2021/12/24 03:35:51;;;;;;;;;;;;;;;2.22;59.30;99018.91;4427585;32;20016;-88
2021/12/24 03:38:16;;;;;;;;;;;;;;;2.30;59.31;99007.69;4427240;32;20463;-88
2021/12/24 03:40:41;;;;;;;;;;;;;;;2.37;59.31;99005.94;4427282;32;20307;-87
2021/12/24 03:43:07;;;;;;;;;;;;;;;2.27;59.30;99006.88;4426512;32;20063;-87
2021/12/24 03:45:49;;;;;;;;;;;;;;;2.43;59.31;99001.56;4426994;32;19993;-87
2021/12/24 03:48:26;;;;;;;;;;;;;;;2.56;59.31;98989.41;4428400;32;19984;-87
2021/12/24 03:51:01;;;;;;;;;;;;;;;2.53;59.32;98974.03;4427870;32;20048;-86
2021/12/24 03:56:10;;;;;;;;;;;;;;;2.67;59.32;98979.03;4429059;32;20000;-87
2021/12/24 03:58:36;;;;;;;;;;;;;;;2.71;59.32;98981.53;4427359;32;19977;-88
2021/12/24 04:01:01;;;;;;;;;;;;;;;2.80;59.34;98972.84;4427323;32;20012;-89
2021/12/24 04:03:26;;;;;;;;;;;;;;;2.94;59.34;98972.66;4427297;32;20045;-89
2021/12/24 04:05:51;;;;;;;;;;;;;;;2.75;59.33;98951.50;4427024;32;23552;-88
2021/12/24 04:08:16;;;;;;;;;;;;;;;2.74;59.33;98950.66;4426503;32;24967;-89
2021/12/24 04:10:42;;;;;;;;;;;;;;;2.91;59.34;98945.28;4427183;32;20018;-88
2021/12/24 04:13:07;;;;;;;;;;;;;;;2.92;59.34;98956.41;4426751;32;21659;-88
2021/12/24 04:15:33;;;;;;;;;;;;;;;2.79;59.33;98937.72;4414398;32;20028;-88
2021/12/24 04:17:59;;;;;;;;;;;;;;;2.77;59.33;98930.06;4414093;32;19988;-88
2021/12/24 04:25:52;;;;;;;;;;;;;;;2.53;59.32;98907.25;4429571;32;19999;-89
2021/12/24 04:28:17;;;;;;;;;;;;;;;2.76;59.33;98899.22;4426461;32;24141;-88
2021/12/24 04:30:48;;;;;;;;;;;;;;;2.71;59.32;98906.16;4426746;32;19988;-87
2021/12/24 04:33:22;;;;;;;;;;;;;;;2.74;59.33;98903.56;4427277;32;19966;-89
2021/12/24 04:35:58;;;;;;;;;;;;;;;2.63;59.32;98900.28;4427951;32;20000;-88
2021/12/24 05:03:07;;;;;;;;;;;;;;;2.44;59.32;98892.81;4442583;32;20033;-88
2021/12/24 05:08:16;;;;;;;;;;;;;;;2.62;59.32;98891.75;4428850;32;21123;-88
2021/12/24 05:10:41;;;;;;;;;;;;;;;2.57;59.31;98887.50;4429984;32;20680;-88
2021/12/24 05:13:07;;;;;;;;;;;;;;;2.61;59.32;98891.75;4428556;32;20027;-88
2021/12/24 05:15:35;;;;;;;;;;;;;;;2.55;59.32;98886.69;4428235;32;20047;-87
2021/12/24 05:23:26;;;;;;;;;;;;;;;2.41;59.31;98886.88;4430460;32;19964;-87
2021/12/24 05:25:51;;;;;;;;;;;;;;;2.38;59.31;98887.78;4428291;32;20312;-87
2021/12/24 05:28:16;;;;;;;;;;;;;;;2.45;59.32;98883.41;4428253;32;20013;-87
2021/12/24 05:30:42;;;;;;;;;;;;;;;2.32;59.30;98880.13;4415588;32;20013;-87
2021/12/24 05:33:11;;;;;;;;;;;;;;;2.25;59.30;98881.09;4427828;32;22157;-87
2021/12/24 05:35:36;;;;;;;;;;;;;;;2.38;59.31;98882.63;4428617;32;20374;-87
2021/12/24 05:38:02;;;;;;;;;;;;;;;2.33;59.31;98875.84;4427631;32;19997;-86
2021/12/24 05:40:27;;;;;;;;;;;;;;;2.23;59.30;98876.84;4427000;32;20303;-84
2021/12/24 05:42:52;;;;;;;;;;;;;;;2.31;59.31;98877.59;4427573;32;20004;-85
2021/12/24 05:45:17;;;;;;;;;;;;;;;2.55;59.32;98890.09;4427312;32;19982;-86
2021/12/24 05:47:42;;;;;;;;;;;;;;;2.55;59.32;98900.38;4427314;32;20009;-86
2021/12/24 05:50:08;;;;;;;;;;;;;;;2.29;59.30;98890.44;4426891;32;20001;-86
2021/12/24 05:52:33;;;;;;;;;;;;;;;2.32;59.30;98900.66;4440334;32;19969;-86
2021/12/24 05:54:58;;;;;;;;;;;;;;;2.37;59.31;98901.50;4426843;32;19978;-84
2021/12/24 05:57:24;;;;;;;;;;;;;;;2.44;59.32;98899.69;4427351;32;20035;-86
2021/12/24 05:59:49;;;;;;;;;;;;;;;2.49;59.31;98900.47;4427433;32;19992;-85
2021/12/24 06:02:14;;;;;;;;;;;;;;;2.41;59.31;98913.41;4426583;32;20023;-87
2021/12/24 06:04:39;;;;;;;;;;;;;;;2.71;59.33;98924.16;4427144;32;19993;-86
2021/12/24 06:07:05;;;;;;;;;;;;;;;2.66;59.33;98916.50;4427207;32;20037;-86
2021/12/24 06:09:30;;;;;;;;;;;;;;;2.57;59.32;98908.06;4427423;32;19992;-87
2021/12/24 06:11:56;;;;;;;;;;;;;;;2.66;59.33;98897.69;4427481;32;24708;-87
2021/12/24 06:14:21;;;;;;;;;;;;;;;2.73;59.33;98900.12;4427342;32;20471;-86
2021/12/24 06:17:14;;;;;;;;;;;;;;;2.68;59.33;98911.34;4427535;32;20000;-86
2021/12/24 06:19:31;;;;;;;;;;;;;;;2.68;59.32;98885.66;4429522;32;20326;-85
2021/12/24 06:21:57;;;;;;;;;;;;;;;2.59;59.32;98889.19;4440002;32;20009;-86
2021/12/24 06:24:22;;;;;;;;;;;;;;;2.72;59.33;98875.31;4427645;32;20376;-86
2021/12/24 06:26:48;;;;;;;;;;;;;;;2.74;59.33;98872.72;4427582;32;20057;-85
2021/12/24 06:29:13;;;;;;;;;;;;;;;2.54;59.31;98878.13;4427344;32;19974;-86
2021/12/24 06:31:38;;;;;;;;;;;;;;;2.48;59.31;98865.37;4427189;32;20043;-87
2021/12/24 06:34:03;;;;;;;;;;;;;;;2.57;59.32;98875.50;4427373;32;20036;-86
2021/12/24 06:36:33;;;;;;;;;;;;;;;2.65;59.33;98860.00;4426889;32;19990;-85
2021/12/24 06:38:59;;;;;;;;;;;;;;;2.63;59.32;98866.91;4427701;32;20057;-86
2021/12/24 06:41:24;;;;;;;;;;;;;;;2.64;59.33;98864.31;4427063;32;20003;-84
2021/12/24 06:43:49;;;;;;;;;;;;;;;2.64;59.33;98869.44;4425758;32;23078;-85
2021/12/24 06:46:14;;;;;;;;;;;;;;;2.76;59.33;98861.53;4426079;32;20021;-85
2021/12/24 06:48:41;;;;;;;;;;;;;;;2.77;59.33;98870.94;4413432;32;19985;-85
2021/12/24 06:51:06;;;;;;;;;;;;;;;2.85;59.33;98870.84;4413519;32;19989;-84
2021/12/24 06:53:31;;;;;;;;;;;;;;;2.83;59.34;98864.00;4440050;32;20224;-85
2021/12/24 06:55:57;;;;;;;;;;;;;;;2.91;59.34;98860.47;4439641;32;19981;-87
2021/12/24 06:58:22;;;;;;;;;;;;;;;2.79;59.32;98860.63;4426860;32;19973;-87
2021/12/24 07:00:49;;;;;;;;;;;;;;;2.90;59.34;98866.47;4427639;32;20040;-92
2021/12/24 07:03:15;;;;;;;;;;;;;;;2.86;59.33;98871.69;4429501;32;20021;-91
2021/12/24 07:05:40;;;;;;;;;;;;;;;3.08;59.35;98867.94;4428005;32;20319;-91
2021/12/24 07:08:05;;;;;;;;;;;;;;;3.05;59.35;98862.81;4427999;32;19969;-90
2021/12/24 07:10:30;;;;;;;;;;;;;;;3.11;59.35;98867.03;4428431;32;20025;-90
2021/12/24 07:12:56;;;;;;;;;;;;;;;3.22;59.36;98878.81;4428145;32;20001;-91
2021/12/24 07:15:21;;;;;;;;;;;;;;;3.21;59.35;98856.56;4427633;32;20001;-91
2021/12/24 07:17:46;;;;;;;;;;;;;;;3.42;59.37;98881.06;4428145;32;19977;-91
2021/12/24 07:20:12;;;;;;;;;;;;;;;3.50;59.37;98852.63;4427982;32;19982;-91
2021/12/24 07:22:37;;;;;;;;;;;;;;;3.34;59.37;98862.34;4427960;32;19993;-90
2021/12/24 07:25:04;;;;;;;;;;;;;;;3.42;59.37;98870.78;4427825;32;20041;-90
2021/12/24 07:27:29;;;;;;;;;;;;;;;3.41;59.37;98870.81;4427941;32;19946;-91
2021/12/24 07:29:54;;;;;;;;;;;;;;;3.34;59.37;98870.91;4429172;32;20023;-92
2021/12/24 07:32:20;;;;;;;;;;;;;;;3.37;59.36;98872.56;4427711;32;19981;-91
2021/12/24 07:34:45;;;;;;;;;;;;;;;3.36;59.36;98889.75;4427858;32;20009;-92
2021/12/24 07:37:10;;;;;;;;;;;;;;;3.17;59.34;98890.91;4428124;32;19969;-93
2021/12/24 07:39:35;;;;;;;;;;;;;;;3.28;59.36;98885.56;4428255;32;20317;-91
2021/12/24 07:42:01;;;;;;;;;;;;;;;3.26;59.36;98895.87;4427620;32;20100;-92
2021/12/24 07:44:28;;;;;;;;;;;;;;;3.28;59.36;98901.84;4428011;32;20275;-92
2021/12/24 07:46:57;;;;;;;;;;;;;;;3.33;59.36;98894.94;4428420;32;19977;-92
2021/12/24 07:54:22;;;;;;;;;;;;;;;3.47;59.38;98850.94;4429880;32;20054;-90
2021/12/24 07:56:47;;;;;;;;;;;;;;;3.60;59.37;98842.16;4429280;32;19993;-92
2021/12/24 07:59:15;;;;;;;;;;;;;;;3.67;59.37;98841.16;4429319;32;19993;-91
2021/12/24 08:01:40;;;;;;;;;;;;;;;3.78;59.39;98827.22;4429887;32;19994;-91
2021/12/24 08:04:06;;;;;;;;;;;;;;;3.93;59.40;98838.06;4429414;32;20596;-90
2021/12/24 08:06:31;;;;;;;;;;;;;;;4.17;59.41;98834.16;4430407;32;19993;-90
2021/12/24 08:08:57;;;;;;;;;;;;;;;4.11;59.41;98846.31;4430187;32;19985;-91
2021/12/24 08:11:22;;;;;;;;;;;;;;;3.99;59.41;98819.06;4432438;32;20005;-91
2021/12/24 08:13:47;;;;;;;;;;;;;;;3.86;59.40;98830.50;4432273;32;20001;-89
2021/12/24 08:16:14;;;;;;;;;;;;;;;3.98;59.41;98830.25;4433223;32;19982;-91
2021/12/24 08:18:39;;;;;;;;;;;;;;;4.26;59.41;98815.09;4436573;32;19957;-90
2021/12/24 08:21:05;;;;;;;;;;;;;;;4.22;59.41;98834.87;4440194;32;19985;-90
2021/12/24 08:23:30;;;;;;;;;;;;;;;4.30;59.42;98830.44;4439754;32;20043;-90
2021/12/24 08:25:58;;;;;;;;;;;;;;;4.39;59.42;98823.38;4434731;32;19978;-91
2021/12/24 08:28:24;;;;;;;;;;;;;;;4.78;59.44;98813.91;4429166;32;19992;-90
2021/12/24 08:30:49;;;;;;;;;;;;;;;4.65;59.44;98805.59;4428880;32;19993;-90
2021/12/24 08:33:15;;;;;;;;;;;;;;;4.77;59.44;98800.19;4429782;32;20050;-90
2021/12/24 08:35:41;;;;;;;;;;;;;;;4.73;59.44;98826.03;4430345;32;19969;-90
2021/12/24 08:38:06;;;;;;;;;;;;;;;4.63;59.43;98804.78;4428242;32;20005;-90
2021/12/24 08:40:31;;;;;;;;;;;;;;;4.74;59.44;98808.00;4427517;32;20001;-89
2021/12/24 08:42:56;;;;;;;;;;;;;;;4.90;59.45;98808.44;4427165;32;20045;-89
2021/12/24 08:45:22;;;;;;;;;;;;;;;4.88;59.45;98793.03;4427875;32;19989;-90
2021/12/24 08:47:47;;;;;;;;;;;;;;;5.09;59.46;98785.62;4429880;32;19992;-91
2021/12/24 08:50:13;;;;;;;;;;;;;;;5.32;59.48;98793.62;4428640;32;20004;-90
2021/12/24 08:52:38;;;;;;;;;;;;;;;5.40;59.48;98802.00;4428001;32;20330;-91
2021/12/24 08:55:04;;;;;;;;;;;;;;;5.44;59.48;98787.28;4416029;32;19985;-92
2021/12/24 08:57:29;;;;;;;;;;;;;;;5.45;59.48;98799.34;4428635;32;19993;-92
2021/12/24 08:59:54;;;;;;;;;;;;;;;5.80;59.50;98785.44;4429620;32;20021;-90
2021/12/24 09:02:19;;;;;;;;;;;;;;;5.65;59.49;98788.44;4430684;32;20008;-90
2021/12/24 09:04:45;;;;;;;;;;;;;;;5.67;59.49;98790.09;4431471;32;20004;-90
2021/12/24 09:07:10;;;;;;;;;;;;;;;5.84;59.51;98790.47;4427551;32;20005;-91
2021/12/24 09:09:35;;;;;;;;;;;;;;;5.95;59.51;98779.91;4427132;32;20033;-90
2021/12/24 09:12:01;;;;;;;;;;;;;;;6.02;59.52;98778.81;4427121;32;20023;-90
2021/12/24 09:14:26;;;;;;;;;;;;;;;6.15;59.53;98789.63;4426824;32;20322;-88
2021/12/24 09:16:51;;;;;;;;;;;;;;;6.23;59.53;98789.41;4426692;32;20043;-89
2021/12/24 09:19:22;;;;;;;;;;;;;;;6.22;59.53;98788.56;4426871;32;20083;-88
2021/12/24 09:21:47;;;;;;;;;;;;;;;6.33;59.53;98785.66;4427965;32;19993;-90
2021/12/24 09:24:12;;;;;;;;;;;;;;;6.44;59.54;98792.19;4427842;32;19997;-91
2021/12/24 09:26:38;;;;;;;;;;;;;;;6.41;59.53;98779.38;4429527;32;20004;-88
2021/12/24 09:29:08;;;;;;;;;;;;;;;6.60;59.55;98774.44;4428016;32;20004;-90
2021/12/24 09:31:34;;;;;;;;;;;;;;;6.85;59.56;98771.94;4430156;32;19994;-91
2021/12/24 09:33:59;;;;;;;;;;;;;;;6.99;59.57;98754.22;4431484;32;19984;-92
2021/12/24 09:36:26;;;;;;;;;;;;;;;7.10;59.58;98751.28;4432396;32;19977;-91
2021/12/24 09:38:51;;;;;;;;;;;;;;;7.28;59.58;98736.84;4431474;32;19976;-92
2021/12/24 09:41:16;;;;;;;;;;;;;;;7.20;59.58;98737.13;4430023;32;20041;-93
2021/12/24 09:43:42;;;;;;;;;;;;;;;7.30;59.59;98737.63;4429616;32;19973;-93
2021/12/24 09:46:07;;;;;;;;;;;;;;;7.32;59.60;98735.84;4429881;32;20274;-89
2021/12/24 09:48:32;;;;;;;;;;;;;;;7.29;59.59;98723.00;4429635;32;19998;-91
2021/12/24 09:50:57;;;;;;;;;;;;;;;7.41;59.59;98720.00;4430761;32;19993;-91
2021/12/24 09:53:23;;;;;;;;;;;;;;;7.53;59.59;98704.00;4432186;32;20322;-91
2021/12/24 09:55:48;;;;;;;;;;;;;;;7.37;59.59;98708.06;4431740;32;20001;-90
2021/12/24 09:58:13;;;;;;;;;;;;;;;7.49;59.60;98709.38;4428860;32;20046;-91
2021/12/24 10:00:39;;;;;;;;;;;;;;;7.77;59.62;98696.25;4428060;32;19993;-91
2021/12/24 10:03:05;;;;;;;;;;;;;;;7.80;59.62;98696.97;4427400;32;19996;-91
2021/12/24 10:05:31;;;;;;;;;;;;;;;7.83;59.61;98699.47;4428945;32;19987;-91
2021/12/24 10:08:22;;;;;;;;;;;;;;;8.00;59.63;98696.22;4441216;32;19989;-91
2021/12/24 10:10:49;;;;;;;;;;;;;;;8.06;59.62;98687.38;4420940;32;20008;-90
2021/12/24 10:13:24;;;;;;;;;;;;;;;8.24;59.64;98682.31;4413369;32;19965;-91
2021/12/24 10:15:50;;;;;;;;;;;;;;;8.34;59.64;98679.41;4413540;32;20380;-91
2021/12/24 10:18:35;;;;;;;;;;;;;;;8.43;59.64;98664.28;4413872;32;20013;-94
2021/12/24 10:21:02;;;;;;;;;;;;;;;8.64;59.66;98670.34;4414042;32;19993;-90
2021/12/24 10:23:37;;;;;;;;;;;;;;;8.69;59.66;98670.16;4413774;32;20052;-90
2021/12/24 10:26:19;;;;;;;;;;;;;;;8.70;59.67;98669.25;4413601;32;19990;-91
2021/12/24 10:28:51;;;;;;;;;;;;;;;8.53;59.66;98663.03;4413465;32;20638;-91
2021/12/24 10:31:17;;;;;;;;;;;;;;;8.70;59.66;98666.66;4412721;32;19966;-92
2021/12/24 10:34:02;;;;;;;;;;;;;;;8.78;59.67;98662.84;4413404;32;19946;-92
2021/12/24 10:36:27;;;;;;;;;;;;;;;8.84;59.67;98656.56;4412743;32;19996;-92
2021/12/24 10:38:56;;;;;;;;;;;;;;;8.80;59.67;98658.44;4412572;32;20009;-92
2021/12/24 10:41:21;;;;;;;;;;;;;;;8.94;59.67;98655.25;4413084;32;20041;-92
2021/12/24 10:43:46;;;;;;;;;;;;;;;8.97;59.68;98655.09;4415231;32;19978;-90
2021/12/24 10:46:13;;;;;;;;;;;;;;;8.88;59.67;98664.12;4413174;32;19974;-91
2021/12/24 10:48:38;;;;;;;;;;;;;;;9.14;59.69;98654.38;4414548;32;20035;-90
2021/12/24 10:51:18;;;;;;;;;;;;;;;9.21;59.69;98650.59;4413848;32;19994;-92
2021/12/24 10:54:03;;;;;;;;;;;;;;;9.32;59.69;98640.59;4414971;32;19961;-93
2021/12/24 10:56:28;;;;;;;;;;;;;;;9.46;59.70;98640.84;4413834;32;21102;-94
2021/12/24 10:58:53;;;;;;;;;;;;;;;9.58;59.71;98642.03;4413391;32;19986;-93
2021/12/24 11:01:18;;;;;;;;;;;;;;;9.74;59.73;98643.00;4413625;32;20032;-94
2021/12/24 11:03:44;;;;;;;;;;;;;;;9.72;59.71;98641.41;4413227;32;23541;-94
2021/12/24 11:06:09;;;;;;;;;;;;;;;9.87;59.72;98637.22;4414807;32;20020;-94
2021/12/24 11:08:35;;;;;;;;;;;;;;;10.06;59.74;98635.47;4415856;32;19993;-94
2021/12/24 11:11:01;;;;;;;;;;;;;;;10.25;59.75;98632.84;4429966;32;19997;-94
2021/12/24 11:13:39;;;;;;;;;;;;;;;10.53;59.76;98630.56;4428850;32;19977;-95
2021/12/24 11:16:06;;;;;;;;;;;;;;;10.58;59.77;98635.56;4429287;32;20048;-93
2021/12/24 11:18:35;;;;;;;;;;;;;;;10.62;59.76;98630.09;4428780;32;20770;-92
2021/12/24 11:21:03;;;;;;;;;;;;;;;10.73;59.77;98622.63;4430079;32;20060;-91
2021/12/24 11:23:29;;;;;;;;;;;;;;;10.73;59.77;98627.81;4441373;32;19997;-89
2021/12/24 11:25:55;;;;;;;;;;;;;;;10.71;59.78;98624.47;4416023;32;20007;-90
2021/12/24 11:28:21;;;;;;;;;;;;;;;10.67;59.77;98628.16;4429418;32;19969;-90
2021/12/24 11:30:49;;;;;;;;;;;;;;;10.75;59.78;98630.34;4429807;32;20008;-90
2021/12/24 11:33:15;;;;;;;;;;;;;;;10.76;59.77;98632.03;4431778;32;20723;-89
2021/12/24 11:35:40;;;;;;;;;;;;;;;10.76;59.79;98625.06;4431451;32;20027;-90
2021/12/24 11:38:06;;;;;;;;;;;;;;;10.65;59.77;98629.97;4432495;32;19997;-88
2021/12/24 11:40:31;;;;;;;;;;;;;;;10.86;59.78;98619.38;4429022;32;19998;-88
2021/12/24 11:42:59;;;;;;;;;;;;;;;10.91;59.78;98613.03;4427467;32;20349;-94
2021/12/24 11:45:24;;;;;;;;;;;;;;;11.02;59.80;98608.09;4428450;32;19989;-85
2021/12/24 11:47:50;;;;;;;;;;;;;;;11.13;59.79;98602.34;4427115;32;20032;-88
2021/12/24 11:50:16;;;;;;;;;;;;;;;11.20;59.80;98614.13;4400302;32;789456;-90
2021/12/24 11:52:41;;;;;;;;;;;;;;;11.17;59.80;98609.09;4421365;32;19996;-91
2021/12/24 11:55:06;;;;;;;;;;;;;;;11.41;59.81;98614.75;4428877;32;20000;-90
2021/12/24 11:57:32;;;;;;;;;;;;;;;11.49;59.81;98609.13;4433337;32;19997;-89
2021/12/24 11:59:57;;;;;;;;;;;;;;;11.42;59.81;98603.41;4428733;32;20370;-91
2021/12/24 12:02:45;;;;;;;;;;;;;;;11.59;59.83;98600.75;4428251;32;19997;-91
2021/12/24 12:05:10;;;;;;;;;;;;;;;11.75;59.83;98598.13;4427918;32;20946;-90
2021/12/24 12:07:35;;;;;;;;;;;;;;;11.82;59.83;98590.81;4440544;32;20017;-90
2021/12/24 12:10:03;;;;;;;;;;;;;;;11.81;59.82;98597.81;4427616;32;19989;-90
2021/12/24 12:12:32;;;;;;;;;;;;;;;11.99;59.85;98593.34;4427711;32;20015;-91
2021/12/24 12:15:17;;;;;;;;;;;;;;;12.02;59.85;98590.56;4428094;32;20027;-89
2021/12/24 12:17:52;;;;;;;;;;;;;;;12.00;59.85;98602.84;4429580;32;19966;-92
2021/12/24 12:20:46;;;;;;;;;;;;;;;12.06;59.85;98602.50;4429566;32;19993;-89
2021/12/24 12:23:31;;;;;;;;;;;;;;;12.01;59.85;98590.63;4428533;32;19962;-89
2021/12/24 12:25:57;;;;;;;;;;;;;;;11.91;59.84;98600.75;4427349;32;19957;-89
2021/12/24 12:28:26;;;;;;;;;;;;;;;11.89;59.84;98608.66;4426448;32;22353;-89
2021/12/24 12:30:52;;;;;;;;;;;;;;;11.92;59.84;98600.66;4427818;32;19997;-88
2021/12/24 12:33:18;;;;;;;;;;;;;;;11.82;59.83;98604.69;4427351;32;19992;-90
2021/12/24 12:35:44;;;;;;;;;;;;;;;11.81;59.83;98605.63;4427224;32;19992;-89
2021/12/24 12:38:28;;;;;;;;;;;;;;;11.82;59.83;98596.88;4427378;32;19993;-90
2021/12/24 12:40:54;;;;;;;;;;;;;;;11.85;59.84;98601.94;4427458;32;19981;-89
2021/12/24 12:43:20;;;;;;;;;;;;;;;11.71;59.83;98604.44;4428537;32;20221;-90
2021/12/24 12:45:47;;;;;;;;;;;;;;;11.77;59.84;98609.31;4429084;32;20019;-90
2021/12/24 12:48:22;;;;;;;;;;;;;;;11.73;59.82;98606.94;4442206;32;19962;-90
2021/12/24 12:50:51;;;;;;;;;;;;;;;11.66;59.83;98602.06;4431329;32;19997;-90
2021/12/24 12:53:26;;;;;;;;;;;;;;;11.73;59.83;98605.19;4431888;32;20033;-89
2021/12/24 12:56:11;;;;;;;;;;;;;;;11.70;59.83;98605.34;4425160;32;19969;-89
2021/12/24 12:58:36;;;;;;;;;;;;;;;11.62;59.82;98600.56;4427812;32;19994;-88
2021/12/24 13:01:03;;;;;;;;;;;;;;;11.45;59.81;98602.41;4427840;32;19993;-89
2021/12/24 13:03:29;;;;;;;;;;;;;;;11.30;59.81;98604.88;4429278;32;19970;-90
2021/12/24 13:05:56;;;;;;;;;;;;;;;11.32;59.81;98604.81;4429126;32;19972;-90
2021/12/24 13:08:22;;;;;;;;;;;;;;;11.41;59.81;98599.13;4428809;32;20009;-89
2021/12/24 13:10:57;;;;;;;;;;;;;;;11.44;59.81;98600.72;4428459;32;20065;-90
2021/12/24 13:13:23;;;;;;;;;;;;;;;11.51;59.81;98597.69;4428569;32;19949;-90
2021/12/24 13:15:48;;;;;;;;;;;;;;;11.38;59.81;98597.53;4428826;32;19989;-90
2021/12/24 13:18:32;;;;;;;;;;;;;;;11.40;59.81;98607.03;4430056;32;19985;-90
2021/12/24 13:23:32;;;;;;;;;;;;;;;11.51;59.82;98612.47;4429298;32;19950;-90
2021/12/24 13:25:57;;;;;;;;;;;;;;;11.44;59.81;98632.81;4427958;32;20033;-89
2021/12/24 13:28:23;;;;;;;;;;;;;;;11.40;59.82;98620.87;4427502;32;21179;-90
2021/12/24 13:30:48;;;;;;;;;;;;;;;11.55;59.82;98616.59;4428052;32;20084;-87
2021/12/24 13:33:13;;;;;;;;;;;;;;;11.43;59.81;98612.06;4428402;32;21901;-91
2021/12/24 13:35:38;;;;;;;;;;;;;;;11.27;59.80;98618.09;4428999;32;20566;-89
2021/12/24 13:38:03;;;;;;;;;;;;;;;11.17;59.80;98632.53;4441656;32;19993;-88
2021/12/24 13:40:30;;;;;;;;;;;;;;;11.08;59.80;98636.44;4428564;32;19993;-92
2021/12/24 13:42:57;;;;;;;;;;;;;;;11.12;59.79;98626.72;4428306;32;20593;-89
2021/12/24 13:45:26;;;;;;;;;;;;;;;11.15;59.81;98636.97;4428119;32;19989;-89
2021/12/24 13:48:15;;;;;;;;;;;;;;;11.01;59.80;98653.28;4427798;32;20125;-90
2021/12/24 13:56:27;;;;;;;;;;;;;;;10.98;59.78;98650.84;4430677;32;20023;-89
2021/12/24 13:58:57;;;;;;;;;;;;;;;11.06;59.79;98653.91;4428373;32;20681;-89
2021/12/24 14:01:26;;;;;;;;;;;;;;;10.75;59.77;98651.16;4428734;32;19993;-90
2021/12/24 14:03:51;;;;;;;;;;;;;;;10.57;59.77;98659.87;4429041;32;19977;-88
2021/12/24 14:06:19;;;;;;;;;;;;;;;10.62;59.76;98661.34;4429865;32;20018;-89
2021/12/24 14:08:45;;;;;;;;;;;;;;;10.51;59.76;98673.19;4430563;32;19973;-89
2021/12/24 14:11:24;;;;;;;;;;;;;;;10.55;59.76;98669.53;4431848;32;19993;-89
2021/12/24 14:13:57;;;;;;;;;;;;;;;10.55;59.77;98659.97;4432469;32;19985;-88
2021/12/24 14:19:42;;;;;;;;;;;;;;;10.32;59.76;98662.84;4428603;32;19974;-88
2021/12/24 14:22:12;;;;;;;;;;;;;;;10.38;59.75;98668.59;4423087;32;20001;-87
2021/12/24 14:24:38;;;;;;;;;;;;;;;10.35;59.75;98667.87;4428030;32;19982;-89
2021/12/24 14:27:07;;;;;;;;;;;;;;;10.29;59.75;98666.44;4427782;32;20026;-89
2021/12/24 14:29:37;;;;;;;;;;;;;;;10.28;59.75;98661.31;4427989;32;19976;-88
2021/12/24 14:32:05;;;;;;;;;;;;;;;10.20;59.75;98655.62;4428124;32;20719;-86
2021/12/24 14:34:33;;;;;;;;;;;;;;;10.25;59.76;98661.47;4444704;32;19953;-88
2021/12/24 14:36:59;;;;;;;;;;;;;;;10.20;59.75;98666.84;4440920;32;20383;-88
2021/12/24 14:39:25;;;;;;;;;;;;;;;10.12;59.75;98650.75;4428050;32;19986;-88
2021/12/24 14:42:09;;;;;;;;;;;;;;;10.07;59.74;98657.94;4427831;32;20003;-88
2021/12/24 14:44:34;;;;;;;;;;;;;;;10.14;59.74;98654.97;4429089;32;20001;-84
2021/12/24 14:46:59;;;;;;;;;;;;;;;10.19;59.75;98657.38;4428843;32;20004;-88
2021/12/24 14:49:34;;;;;;;;;;;;;;;10.24;59.76;98660.63;4429461;32;19997;-88